sensor_id;sensor_type;location;lat;lon;timestamp;P1;durP1;ratioP1;P2;durP2;ratioP2
57395;SDS011;43222;52.912;6.940;2023-06-10T00:01:58;9.93;;;5.63;;
57395;SDS011;43222;52.912;6.940;2023-06-10T00:04:25;9.75;;;5.20;;
57395;SDS011;43222;52.912;6.940;2023-06-10T00:06:51;10.15;;;5.43;;
57395;SDS011;43222;52.912;6.940;2023-06-10T00:09:18;10.40;;;5.55;;
57395;SDS011;43222;52.912;6.940;2023-06-10T00:11:46;11.25;;;5.60;;
57395;SDS011;43222;52.912;6.940;2023-06-10T00:14:12;10.85;;;5.70;;
57395;SDS011;43222;52.912;6.940;2023-06-10T00:16:38;13.57;;;5.90;;
57395;SDS011;43222;52.912;6.940;2023-06-10T00:19:04;10.68;;;5.22;;
57395;SDS011;43222;52.912;6.940;2023-06-10T00:21:31;14.25;;;5.53;;
57395;SDS011;43222;52.912;6.940;2023-06-10T00:24:05;11.07;;;5.95;;
57395;SDS011;43222;52.912;6.940;2023-06-10T00:26:31;11.18;;;5.65;;
57395;SDS011;43222;52.912;6.940;2023-06-10T00:28:58;13.07;;;5.55;;
57395;SDS011;43222;52.912;6.940;2023-06-10T00:31:24;11.88;;;5.40;;
57395;SDS011;43222;52.912;6.940;2023-06-10T00:33:51;11.55;;;5.60;;
57395;SDS011;43222;52.912;6.940;2023-06-10T00:36:17;9.95;;;5.75;;
57395;SDS011;43222;52.912;6.940;2023-06-10T00:38:43;11.45;;;5.47;;
57395;SDS011;43222;52.912;6.940;2023-06-10T00:41:09;14.80;;;5.60;;
57395;SDS011;43222;52.912;6.940;2023-06-10T00:43:35;10.98;;;5.63;;
57395;SDS011;43222;52.912;6.940;2023-06-10T00:46:01;10.57;;;5.45;;
57395;SDS011;43222;52.912;6.940;2023-06-10T00:48:27;13.85;;;5.88;;
57395;SDS011;43222;52.912;6.940;2023-06-10T00:50:54;9.93;;;6.00;;
57395;SDS011;43222;52.912;6.940;2023-06-10T00:53:21;12.90;;;5.72;;
57395;SDS011;43222;52.912;6.940;2023-06-10T00:55:47;18.45;;;6.18;;
57395;SDS011;43222;52.912;6.940;2023-06-10T00:58:13;13.85;;;6.30;;
57395;SDS011;43222;52.912;6.940;2023-06-10T01:00:40;11.68;;;6.43;;
57395;SDS011;43222;52.912;6.940;2023-06-10T01:03:06;10.10;;;5.65;;
57395;SDS011;43222;52.912;6.940;2023-06-10T01:05:36;11.88;;;6.20;;
57395;SDS011;43222;52.912;6.940;2023-06-10T01:08:07;13.20;;;5.75;;
57395;SDS011;43222;52.912;6.940;2023-06-10T01:10:38;13.13;;;6.00;;
57395;SDS011;43222;52.912;6.940;2023-06-10T01:13:07;11.85;;;5.60;;
57395;SDS011;43222;52.912;6.940;2023-06-10T01:15:36;12.93;;;6.05;;
57395;SDS011;43222;52.912;6.940;2023-06-10T01:18:09;10.80;;;5.95;;
57395;SDS011;43222;52.912;6.940;2023-06-10T01:20:40;12.10;;;5.70;;
57395;SDS011;43222;52.912;6.940;2023-06-10T01:23:06;13.38;;;6.20;;
57395;SDS011;43222;52.912;6.940;2023-06-10T01:25:33;14.38;;;6.15;;
57395;SDS011;43222;52.912;6.940;2023-06-10T01:31:08;11.10;;;6.00;;
57395;SDS011;43222;52.912;6.940;2023-06-10T01:33:37;10.18;;;6.00;;
57395;SDS011;43222;52.912;6.940;2023-06-10T01:36:04;12.23;;;6.00;;
57395;SDS011;43222;52.912;6.940;2023-06-10T01:38:32;13.35;;;5.93;;
57395;SDS011;43222;52.912;6.940;2023-06-10T01:40:58;12.00;;;5.78;;
57395;SDS011;43222;52.912;6.940;2023-06-10T01:43:25;9.32;;;5.53;;
57395;SDS011;43222;52.912;6.940;2023-06-10T01:45:51;10.38;;;5.40;;
57395;SDS011;43222;52.912;6.940;2023-06-10T01:48:17;9.98;;;5.93;;
57395;SDS011;43222;52.912;6.940;2023-06-10T01:50:44;15.38;;;5.95;;
57395;SDS011;43222;52.912;6.940;2023-06-10T01:53:10;10.75;;;5.97;;
57395;SDS011;43222;52.912;6.940;2023-06-10T01:55:36;12.98;;;6.15;;
57395;SDS011;43222;52.912;6.940;2023-06-10T01:58:02;10.70;;;6.38;;
57395;SDS011;43222;52.912;6.940;2023-06-10T02:00:28;12.48;;;6.28;;
57395;SDS011;43222;52.912;6.940;2023-06-10T02:02:54;12.75;;;6.18;;
57395;SDS011;43222;52.912;6.940;2023-06-10T02:05:20;11.45;;;5.97;;
57395;SDS011;43222;52.912;6.940;2023-06-10T02:07:46;10.52;;;5.97;;
57395;SDS011;43222;52.912;6.940;2023-06-10T02:10:12;11.75;;;6.40;;
57395;SDS011;43222;52.912;6.940;2023-06-10T02:12:38;12.15;;;6.07;;
57395;SDS011;43222;52.912;6.940;2023-06-10T02:15:05;12.48;;;6.10;;
57395;SDS011;43222;52.912;6.940;2023-06-10T02:17:31;16.60;;;6.57;;
57395;SDS011;43222;52.912;6.940;2023-06-10T02:19:57;11.88;;;6.15;;
57395;SDS011;43222;52.912;6.940;2023-06-10T02:22:24;13.18;;;6.22;;
57395;SDS011;43222;52.912;6.940;2023-06-10T02:24:51;11.85;;;6.00;;
57395;SDS011;43222;52.912;6.940;2023-06-10T02:27:17;13.13;;;6.05;;
57395;SDS011;43222;52.912;6.940;2023-06-10T02:29:44;11.57;;;6.47;;
57395;SDS011;43222;52.912;6.940;2023-06-10T02:32:10;11.52;;;6.15;;
57395;SDS011;43222;52.912;6.940;2023-06-10T02:34:36;13.20;;;6.40;;
57395;SDS011;43222;52.912;6.940;2023-06-10T02:37:02;10.68;;;6.10;;
57395;SDS011;43222;52.912;6.940;2023-06-10T02:39:29;11.02;;;5.93;;
57395;SDS011;43222;52.912;6.940;2023-06-10T02:41:55;11.82;;;5.97;;
57395;SDS011;43222;52.912;6.940;2023-06-10T02:44:21;13.30;;;6.25;;
57395;SDS011;43222;52.912;6.940;2023-06-10T02:46:47;12.25;;;6.50;;
57395;SDS011;43222;52.912;6.940;2023-06-10T02:49:13;12.00;;;6.22;;
57395;SDS011;43222;52.912;6.940;2023-06-10T02:51:39;13.73;;;6.32;;
57395;SDS011;43222;52.912;6.940;2023-06-10T02:54:05;12.80;;;6.20;;
57395;SDS011;43222;52.912;6.940;2023-06-10T02:56:31;13.93;;;6.38;;
57395;SDS011;43222;52.912;6.940;2023-06-10T02:58:58;13.02;;;6.20;;
57395;SDS011;43222;52.912;6.940;2023-06-10T03:01:24;12.90;;;6.40;;
57395;SDS011;43222;52.912;6.940;2023-06-10T03:03:50;11.70;;;6.28;;
57395;SDS011;43222;52.912;6.940;2023-06-10T03:06:17;11.98;;;6.20;;
57395;SDS011;43222;52.912;6.940;2023-06-10T03:08:43;11.93;;;6.25;;
57395;SDS011;43222;52.912;6.940;2023-06-10T03:11:10;11.18;;;6.03;;
57395;SDS011;43222;52.912;6.940;2023-06-10T03:13:38;12.00;;;6.13;;
57395;SDS011;43222;52.912;6.940;2023-06-10T03:16:05;14.35;;;6.45;;
57395;SDS011;43222;52.912;6.940;2023-06-10T03:18:31;11.88;;;6.30;;
57395;SDS011;43222;52.912;6.940;2023-06-10T03:20:57;11.80;;;7.03;;
57395;SDS011;43222;52.912;6.940;2023-06-10T03:23:24;14.07;;;7.38;;
57395;SDS011;43222;52.912;6.940;2023-06-10T03:25:50;13.45;;;6.30;;
57395;SDS011;43222;52.912;6.940;2023-06-10T03:28:16;16.38;;;6.85;;
57395;SDS011;43222;52.912;6.940;2023-06-10T03:30:42;17.40;;;8.20;;
57395;SDS011;43222;52.912;6.940;2023-06-10T03:33:08;12.57;;;6.25;;
57395;SDS011;43222;52.912;6.940;2023-06-10T03:35:34;12.77;;;6.88;;
57395;SDS011;43222;52.912;6.940;2023-06-10T03:38:00;11.35;;;6.10;;
57395;SDS011;43222;52.912;6.940;2023-06-10T03:40:26;14.77;;;6.68;;
57395;SDS011;43222;52.912;6.940;2023-06-10T03:42:52;12.77;;;6.70;;
57395;SDS011;43222;52.912;6.940;2023-06-10T03:45:18;13.70;;;6.38;;
57395;SDS011;43222;52.912;6.940;2023-06-10T03:47:45;10.68;;;6.38;;
57395;SDS011;43222;52.912;6.940;2023-06-10T03:50:13;11.30;;;6.40;;
57395;SDS011;43222;52.912;6.940;2023-06-10T03:52:39;15.73;;;6.78;;
57395;SDS011;43222;52.912;6.940;2023-06-10T03:55:06;11.82;;;6.03;;
57395;SDS011;43222;52.912;6.940;2023-06-10T03:57:32;13.10;;;6.55;;
57395;SDS011;43222;52.912;6.940;2023-06-10T03:59:58;14.13;;;6.35;;
57395;SDS011;43222;52.912;6.940;2023-06-10T04:02:24;12.38;;;6.72;;
57395;SDS011;43222;52.912;6.940;2023-06-10T04:04:50;12.82;;;6.50;;
57395;SDS011;43222;52.912;6.940;2023-06-10T04:07:17;14.35;;;5.88;;
57395;SDS011;43222;52.912;6.940;2023-06-10T04:09:45;14.13;;;7.25;;
57395;SDS011;43222;52.912;6.940;2023-06-10T04:12:11;12.75;;;6.72;;
57395;SDS011;43222;52.912;6.940;2023-06-10T04:14:38;12.65;;;6.20;;
57395;SDS011;43222;52.912;6.940;2023-06-10T04:17:04;13.77;;;6.95;;
57395;SDS011;43222;52.912;6.940;2023-06-10T04:19:31;14.00;;;6.18;;
57395;SDS011;43222;52.912;6.940;2023-06-10T04:21:58;11.90;;;6.22;;
57395;SDS011;43222;52.912;6.940;2023-06-10T04:24:25;11.27;;;6.00;;
57395;SDS011;43222;52.912;6.940;2023-06-10T04:26:51;13.68;;;5.68;;
57395;SDS011;43222;52.912;6.940;2023-06-10T04:29:17;11.43;;;5.75;;
57395;SDS011;43222;52.912;6.940;2023-06-10T04:31:43;11.32;;;5.82;;
57395;SDS011;43222;52.912;6.940;2023-06-10T04:34:11;12.10;;;6.13;;
57395;SDS011;43222;52.912;6.940;2023-06-10T04:36:38;12.88;;;5.93;;
57395;SDS011;43222;52.912;6.940;2023-06-10T04:39:04;12.20;;;6.55;;
57395;SDS011;43222;52.912;6.940;2023-06-10T04:41:31;12.73;;;5.75;;
57395;SDS011;43222;52.912;6.940;2023-06-10T04:43:57;11.77;;;6.25;;
57395;SDS011;43222;52.912;6.940;2023-06-10T04:46:23;14.68;;;6.43;;
57395;SDS011;43222;52.912;6.940;2023-06-10T04:48:49;14.23;;;5.95;;
57395;SDS011;43222;52.912;6.940;2023-06-10T04:51:16;13.55;;;6.28;;
57395;SDS011;43222;52.912;6.940;2023-06-10T04:53:42;13.60;;;6.40;;
57395;SDS011;43222;52.912;6.940;2023-06-10T04:56:09;11.77;;;6.03;;
57395;SDS011;43222;52.912;6.940;2023-06-10T04:58:35;14.95;;;6.20;;
57395;SDS011;43222;52.912;6.940;2023-06-10T05:01:01;12.02;;;6.05;;
57395;SDS011;43222;52.912;6.940;2023-06-10T05:03:27;11.68;;;5.75;;
57395;SDS011;43222;52.912;6.940;2023-06-10T05:05:53;14.93;;;6.32;;
57395;SDS011;43222;52.912;6.940;2023-06-10T05:08:19;17.38;;;7.13;;
57395;SDS011;43222;52.912;6.940;2023-06-10T05:10:45;15.25;;;6.75;;
57395;SDS011;43222;52.912;6.940;2023-06-10T05:13:11;11.88;;;6.57;;
57395;SDS011;43222;52.912;6.940;2023-06-10T05:15:37;14.35;;;6.80;;
57395;SDS011;43222;52.912;6.940;2023-06-10T05:18:03;13.98;;;6.50;;
57395;SDS011;43222;52.912;6.940;2023-06-10T05:20:30;12.15;;;6.85;;
57395;SDS011;43222;52.912;6.940;2023-06-10T05:22:56;15.55;;;7.05;;
57395;SDS011;43222;52.912;6.940;2023-06-10T05:25:22;15.88;;;6.97;;
57395;SDS011;43222;52.912;6.940;2023-06-10T05:27:48;12.70;;;6.90;;
57395;SDS011;43222;52.912;6.940;2023-06-10T05:30:14;13.73;;;6.72;;
57395;SDS011;43222;52.912;6.940;2023-06-10T05:32:40;14.02;;;6.35;;
57395;SDS011;43222;52.912;6.940;2023-06-10T05:35:06;14.85;;;6.60;;
57395;SDS011;43222;52.912;6.940;2023-06-10T05:37:33;16.20;;;6.53;;
57395;SDS011;43222;52.912;6.940;2023-06-10T05:40:01;13.90;;;5.90;;
57395;SDS011;43222;52.912;6.940;2023-06-10T05:42:29;12.63;;;6.00;;
57395;SDS011;43222;52.912;6.940;2023-06-10T05:44:55;13.65;;;6.00;;
57395;SDS011;43222;52.912;6.940;2023-06-10T05:47:21;12.07;;;5.65;;
57395;SDS011;43222;52.912;6.940;2023-06-10T05:49:47;10.93;;;5.45;;
57395;SDS011;43222;52.912;6.940;2023-06-10T05:52:15;11.25;;;5.80;;
57395;SDS011;43222;52.912;6.940;2023-06-10T05:54:41;13.32;;;6.10;;
57395;SDS011;43222;52.912;6.940;2023-06-10T05:57:07;11.65;;;5.28;;
57395;SDS011;43222;52.912;6.940;2023-06-10T05:59:33;12.18;;;5.60;;
57395;SDS011;43222;52.912;6.940;2023-06-10T06:01:59;14.30;;;5.85;;
57395;SDS011;43222;52.912;6.940;2023-06-10T06:04:25;11.85;;;5.68;;
57395;SDS011;43222;52.912;6.940;2023-06-10T06:06:51;11.23;;;6.25;;
57395;SDS011;43222;52.912;6.940;2023-06-10T06:09:17;11.27;;;5.22;;
57395;SDS011;43222;52.912;6.940;2023-06-10T06:11:43;10.32;;;5.45;;
57395;SDS011;43222;52.912;6.940;2023-06-10T06:14:09;10.85;;;5.60;;
57395;SDS011;43222;52.912;6.940;2023-06-10T06:16:35;10.75;;;5.65;;
57395;SDS011;43222;52.912;6.940;2023-06-10T06:19:01;11.93;;;5.65;;
57395;SDS011;43222;52.912;6.940;2023-06-10T06:21:27;12.10;;;6.03;;
57395;SDS011;43222;52.912;6.940;2023-06-10T06:23:53;10.70;;;5.22;;
57395;SDS011;43222;52.912;6.940;2023-06-10T06:26:19;12.13;;;5.95;;
57395;SDS011;43222;52.912;6.940;2023-06-10T06:28:46;11.50;;;5.40;;
57395;SDS011;43222;52.912;6.940;2023-06-10T06:31:12;11.13;;;5.93;;
57395;SDS011;43222;52.912;6.940;2023-06-10T06:33:38;13.07;;;5.93;;
57395;SDS011;43222;52.912;6.940;2023-06-10T06:36:05;14.23;;;5.72;;
57395;SDS011;43222;52.912;6.940;2023-06-10T06:38:31;12.13;;;5.72;;
57395;SDS011;43222;52.912;6.940;2023-06-10T06:40:57;11.25;;;6.40;;
57395;SDS011;43222;52.912;6.940;2023-06-10T06:45:54;12.45;;;7.18;;
57395;SDS011;43222;52.912;6.940;2023-06-10T06:48:20;10.63;;;6.35;;
57395;SDS011;43222;52.912;6.940;2023-06-10T06:50:46;10.57;;;6.28;;
57395;SDS011;43222;52.912;6.940;2023-06-10T06:53:12;10.60;;;6.70;;
57395;SDS011;43222;52.912;6.940;2023-06-10T06:55:38;10.73;;;7.22;;
57395;SDS011;43222;52.912;6.940;2023-06-10T06:58:04;12.52;;;7.60;;
57395;SDS011;43222;52.912;6.940;2023-06-10T07:00:30;11.73;;;7.25;;
57395;SDS011;43222;52.912;6.940;2023-06-10T07:02:57;15.57;;;7.40;;
57395;SDS011;43222;52.912;6.940;2023-06-10T07:05:23;11.95;;;6.90;;
57395;SDS011;43222;52.912;6.940;2023-06-10T07:07:53;13.02;;;7.10;;
57395;SDS011;43222;52.912;6.940;2023-06-10T07:10:26;12.85;;;7.43;;
57395;SDS011;43222;52.912;6.940;2023-06-10T07:12:52;12.05;;;7.20;;
57395;SDS011;43222;52.912;6.940;2023-06-10T07:15:18;11.40;;;7.00;;
57395;SDS011;43222;52.912;6.940;2023-06-10T07:17:45;13.60;;;7.97;;
57395;SDS011;43222;52.912;6.940;2023-06-10T07:20:11;12.50;;;7.82;;
57395;SDS011;43222;52.912;6.940;2023-06-10T07:22:38;12.32;;;6.70;;
57395;SDS011;43222;52.912;6.940;2023-06-10T07:25:04;13.20;;;7.00;;
57395;SDS011;43222;52.912;6.940;2023-06-10T07:27:30;11.25;;;6.55;;
57395;SDS011;43222;52.912;6.940;2023-06-10T07:29:56;13.10;;;7.05;;
57395;SDS011;43222;52.912;6.940;2023-06-10T07:32:23;10.27;;;6.50;;
57395;SDS011;43222;52.912;6.940;2023-06-10T07:34:50;10.75;;;6.70;;
57395;SDS011;43222;52.912;6.940;2023-06-10T07:37:16;13.40;;;6.40;;
57395;SDS011;43222;52.912;6.940;2023-06-10T07:39:42;12.95;;;7.05;;
57395;SDS011;43222;52.912;6.940;2023-06-10T07:42:08;10.40;;;6.25;;
57395;SDS011;43222;52.912;6.940;2023-06-10T07:44:34;9.73;;;6.28;;
57395;SDS011;43222;52.912;6.940;2023-06-10T07:47:01;11.43;;;6.07;;
57395;SDS011;43222;52.912;6.940;2023-06-10T07:49:27;9.82;;;6.07;;
57395;SDS011;43222;52.912;6.940;2023-06-10T07:51:54;9.93;;;5.30;;
57395;SDS011;43222;52.912;6.940;2023-06-10T07:54:23;10.53;;;5.43;;
57395;SDS011;43222;52.912;6.940;2023-06-10T07:56:49;9.13;;;5.82;;
57395;SDS011;43222;52.912;6.940;2023-06-10T07:59:17;9.73;;;5.60;;
57395;SDS011;43222;52.912;6.940;2023-06-10T08:01:43;8.38;;;5.68;;
57395;SDS011;43222;52.912;6.940;2023-06-10T08:04:09;10.90;;;5.55;;
57395;SDS011;43222;52.912;6.940;2023-06-10T08:06:35;9.68;;;5.55;;
57395;SDS011;43222;52.912;6.940;2023-06-10T08:09:02;10.00;;;5.55;;
57395;SDS011;43222;52.912;6.940;2023-06-10T08:11:28;10.85;;;5.93;;
57395;SDS011;43222;52.912;6.940;2023-06-10T08:13:55;13.18;;;5.47;;
57395;SDS011;43222;52.912;6.940;2023-06-10T08:16:21;10.55;;;5.65;;
57395;SDS011;43222;52.912;6.940;2023-06-10T08:18:47;11.35;;;5.38;;
57395;SDS011;43222;52.912;6.940;2023-06-10T08:21:15;9.90;;;5.70;;
57395;SDS011;43222;52.912;6.940;2023-06-10T08:23:41;13.13;;;5.68;;
57395;SDS011;43222;52.912;6.940;2023-06-10T08:26:07;11.02;;;5.60;;
57395;SDS011;43222;52.912;6.940;2023-06-10T08:28:33;10.77;;;5.32;;
57395;SDS011;43222;52.912;6.940;2023-06-10T08:31:00;10.88;;;5.38;;
57395;SDS011;43222;52.912;6.940;2023-06-10T08:33:26;11.52;;;5.63;;
57395;SDS011;43222;52.912;6.940;2023-06-10T08:35:52;10.95;;;5.15;;
57395;SDS011;43222;52.912;6.940;2023-06-10T08:38:18;10.30;;;5.75;;
57395;SDS011;43222;52.912;6.940;2023-06-10T08:40:44;11.50;;;5.30;;
57395;SDS011;43222;52.912;6.940;2023-06-10T08:43:15;8.23;;;4.55;;
57395;SDS011;43222;52.912;6.940;2023-06-10T08:45:42;12.05;;;5.10;;
57395;SDS011;43222;52.912;6.940;2023-06-10T08:48:12;10.38;;;4.70;;
57395;SDS011;43222;52.912;6.940;2023-06-10T08:50:39;9.15;;;4.50;;
57395;SDS011;43222;52.912;6.940;2023-06-10T08:53:07;10.88;;;5.00;;
57395;SDS011;43222;52.912;6.940;2023-06-10T08:55:35;8.50;;;4.45;;
57395;SDS011;43222;52.912;6.940;2023-06-10T08:58:02;7.95;;;4.45;;
57395;SDS011;43222;52.912;6.940;2023-06-10T09:00:28;10.27;;;4.78;;
57395;SDS011;43222;52.912;6.940;2023-06-10T09:02:55;9.75;;;5.32;;
57395;SDS011;43222;52.912;6.940;2023-06-10T09:05:21;9.40;;;4.70;;
57395;SDS011;43222;52.912;6.940;2023-06-10T09:07:47;11.15;;;5.07;;
57395;SDS011;43222;52.912;6.940;2023-06-10T09:10:14;10.80;;;4.72;;
57395;SDS011;43222;52.912;6.940;2023-06-10T09:12:40;8.52;;;4.38;;
57395;SDS011;43222;52.912;6.940;2023-06-10T09:15:07;10.05;;;4.70;;
57395;SDS011;43222;52.912;6.940;2023-06-10T09:17:33;8.02;;;4.25;;
57395;SDS011;43222;52.912;6.940;2023-06-10T09:20:01;10.10;;;4.40;;
57395;SDS011;43222;52.912;6.940;2023-06-10T09:22:27;8.50;;;4.85;;
57395;SDS011;43222;52.912;6.940;2023-06-10T09:25:06;9.98;;;4.88;;
57395;SDS011;43222;52.912;6.940;2023-06-10T09:27:49;8.93;;;4.38;;
57395;SDS011;43222;52.912;6.940;2023-06-10T09:30:28;9.48;;;4.22;;
57395;SDS011;43222;52.912;6.940;2023-06-10T09:32:56;10.18;;;4.72;;
57395;SDS011;43222;52.912;6.940;2023-06-10T09:35:25;9.80;;;4.45;;
57395;SDS011;43222;52.912;6.940;2023-06-10T09:37:52;9.25;;;5.18;;
57395;SDS011;43222;52.912;6.940;2023-06-10T09:40:19;10.60;;;3.60;;
57395;SDS011;43222;52.912;6.940;2023-06-10T09:42:45;8.00;;;3.90;;
57395;SDS011;43222;52.912;6.940;2023-06-10T09:45:14;8.38;;;4.18;;
57395;SDS011;43222;52.912;6.940;2023-06-10T09:47:40;10.75;;;4.13;;
57395;SDS011;43222;52.912;6.940;2023-06-10T09:50:06;10.20;;;3.95;;
57395;SDS011;43222;52.912;6.940;2023-06-10T09:52:33;9.77;;;4.13;;
57395;SDS011;43222;52.912;6.940;2023-06-10T09:55:00;7.18;;;3.70;;
57395;SDS011;43222;52.912;6.940;2023-06-10T09:57:26;9.00;;;3.75;;
57395;SDS011;43222;52.912;6.940;2023-06-10T10:02:23;11.45;;;3.78;;
57395;SDS011;43222;52.912;6.940;2023-06-10T10:04:49;8.27;;;3.90;;
57395;SDS011;43222;52.912;6.940;2023-06-10T10:07:15;9.05;;;3.47;;
57395;SDS011;43222;52.912;6.940;2023-06-10T10:09:42;8.63;;;3.80;;
57395;SDS011;43222;52.912;6.940;2023-06-10T10:12:11;8.07;;;3.95;;
57395;SDS011;43222;52.912;6.940;2023-06-10T10:14:38;10.05;;;3.90;;
57395;SDS011;43222;52.912;6.940;2023-06-10T10:17:07;10.13;;;4.07;;
57395;SDS011;43222;52.912;6.940;2023-06-10T10:19:34;7.20;;;4.10;;
57395;SDS011;43222;52.912;6.940;2023-06-10T10:22:04;6.80;;;4.00;;
57395;SDS011;43222;52.912;6.940;2023-06-10T10:24:33;7.45;;;3.85;;
57395;SDS011;43222;52.912;6.940;2023-06-10T10:27:04;9.13;;;3.53;;
57395;SDS011;43222;52.912;6.940;2023-06-10T10:29:37;8.18;;;3.67;;
57395;SDS011;43222;52.912;6.940;2023-06-10T10:32:04;9.25;;;4.15;;
57395;SDS011;43222;52.912;6.940;2023-06-10T10:34:37;9.07;;;4.05;;
57395;SDS011;43222;52.912;6.940;2023-06-10T10:37:06;8.68;;;3.58;;
57395;SDS011;43222;52.912;6.940;2023-06-10T10:39:33;8.48;;;4.03;;
57395;SDS011;43222;52.912;6.940;2023-06-10T10:41:59;8.05;;;3.70;;
57395;SDS011;43222;52.912;6.940;2023-06-10T10:44:25;8.70;;;4.20;;
57395;SDS011;43222;52.912;6.940;2023-06-10T10:46:52;10.00;;;3.88;;
57395;SDS011;43222;52.912;6.940;2023-06-10T10:49:19;9.57;;;3.33;;
57395;SDS011;43222;52.912;6.940;2023-06-10T10:51:58;8.73;;;4.00;;
57395;SDS011;43222;52.912;6.940;2023-06-10T10:54:28;8.63;;;3.80;;
57395;SDS011;43222;52.912;6.940;2023-06-10T10:59:21;8.50;;;3.55;;
57395;SDS011;43222;52.912;6.940;2023-06-10T11:01:47;8.82;;;3.55;;
57395;SDS011;43222;52.912;6.940;2023-06-10T11:04:14;9.25;;;3.60;;
57395;SDS011;43222;52.912;6.940;2023-06-10T11:06:52;8.07;;;3.75;;
57395;SDS011;43222;52.912;6.940;2023-06-10T11:09:25;6.05;;;3.17;;
57395;SDS011;43222;52.912;6.940;2023-06-10T11:11:53;6.75;;;3.35;;
57395;SDS011;43222;52.912;6.940;2023-06-10T11:14:28;8.23;;;3.50;;
57395;SDS011;43222;52.912;6.940;2023-06-10T11:16:58;7.82;;;3.40;;
57395;SDS011;43222;52.912;6.940;2023-06-10T11:22:00;8.75;;;3.28;;
57395;SDS011;43222;52.912;6.940;2023-06-10T11:24:27;6.72;;;3.00;;
57395;SDS011;43222;52.912;6.940;2023-06-10T11:26:53;6.85;;;3.17;;
57395;SDS011;43222;52.912;6.940;2023-06-10T11:29:20;9.85;;;3.60;;
57395;SDS011;43222;52.912;6.940;2023-06-10T11:31:49;7.35;;;2.90;;
57395;SDS011;43222;52.912;6.940;2023-06-10T11:34:21;10.90;;;3.80;;
57395;SDS011;43222;52.912;6.940;2023-06-10T11:36:48;8.25;;;2.85;;
57395;SDS011;43222;52.912;6.940;2023-06-10T11:39:14;6.18;;;2.90;;
57395;SDS011;43222;52.912;6.940;2023-06-10T11:41:41;6.68;;;2.92;;
57395;SDS011;43222;52.912;6.940;2023-06-10T11:46:33;8.27;;;3.10;;
57395;SDS011;43222;52.912;6.940;2023-06-10T11:49:00;6.72;;;3.22;;
57395;SDS011;43222;52.912;6.940;2023-06-10T11:51:37;7.55;;;3.10;;
57395;SDS011;43222;52.912;6.940;2023-06-10T11:54:04;7.43;;;3.10;;
57395;SDS011;43222;52.912;6.940;2023-06-10T11:56:30;7.47;;;3.20;;
57395;SDS011;43222;52.912;6.940;2023-06-10T12:01:23;8.13;;;2.78;;
57395;SDS011;43222;52.912;6.940;2023-06-10T12:03:59;8.80;;;3.22;;
57395;SDS011;43222;52.912;6.940;2023-06-10T12:06:26;9.13;;;3.03;;
57395;SDS011;43222;52.912;6.940;2023-06-10T12:08:53;7.28;;;2.72;;
57395;SDS011;43222;52.912;6.940;2023-06-10T12:11:19;5.90;;;2.70;;
57395;SDS011;43222;52.912;6.940;2023-06-10T12:13:46;6.65;;;3.10;;
57395;SDS011;43222;52.912;6.940;2023-06-10T12:16:14;8.13;;;2.72;;
57395;SDS011;43222;52.912;6.940;2023-06-10T12:18:42;6.47;;;2.97;;
57395;SDS011;43222;52.912;6.940;2023-06-10T12:21:19;5.93;;;2.78;;
57395;SDS011;43222;52.912;6.940;2023-06-10T12:31:54;8.00;;;3.15;;
57395;SDS011;43222;52.912;6.940;2023-06-10T12:34:27;8.18;;;3.20;;
57395;SDS011;43222;52.912;6.940;2023-06-10T12:36:54;8.02;;;2.60;;
57395;SDS011;43222;52.912;6.940;2023-06-10T12:39:20;7.97;;;3.00;;
57395;SDS011;43222;52.912;6.940;2023-06-10T12:41:49;6.82;;;3.10;;
57395;SDS011;43222;52.912;6.940;2023-06-10T12:44:16;10.57;;;3.25;;
57395;SDS011;43222;52.912;6.940;2023-06-10T12:46:42;6.47;;;3.00;;
57395;SDS011;43222;52.912;6.940;2023-06-10T12:49:18;6.30;;;2.65;;
57395;SDS011;43222;52.912;6.940;2023-06-10T12:51:45;6.88;;;3.10;;
57395;SDS011;43222;52.912;6.940;2023-06-10T12:54:11;6.38;;;2.97;;
57395;SDS011;43222;52.912;6.940;2023-06-10T12:56:37;7.30;;;2.50;;
57395;SDS011;43222;52.912;6.940;2023-06-10T12:59:03;7.60;;;2.40;;
57395;SDS011;43222;52.912;6.940;2023-06-10T13:01:30;6.43;;;2.60;;
57395;SDS011;43222;52.912;6.940;2023-06-10T13:03:57;7.78;;;2.75;;
57395;SDS011;43222;52.912;6.940;2023-06-10T13:06:23;7.90;;;2.60;;
57395;SDS011;43222;52.912;6.940;2023-06-10T13:08:50;6.38;;;2.40;;
57395;SDS011;43222;52.912;6.940;2023-06-10T13:11:17;5.57;;;2.35;;
57395;SDS011;43222;52.912;6.940;2023-06-10T13:13:43;6.88;;;2.50;;
57395;SDS011;43222;52.912;6.940;2023-06-10T13:16:09;5.57;;;2.13;;
57395;SDS011;43222;52.912;6.940;2023-06-10T13:18:35;7.15;;;2.55;;
57395;SDS011;43222;52.912;6.940;2023-06-10T13:21:03;6.18;;;2.60;;
57395;SDS011;43222;52.912;6.940;2023-06-10T13:23:29;5.95;;;2.60;;
57395;SDS011;43222;52.912;6.940;2023-06-10T13:25:56;7.03;;;2.50;;
57395;SDS011;43222;52.912;6.940;2023-06-10T13:28:22;6.68;;;2.42;;
57395;SDS011;43222;52.912;6.940;2023-06-10T13:30:49;6.80;;;2.40;;
57395;SDS011;43222;52.912;6.940;2023-06-10T13:33:15;6.57;;;2.53;;
57395;SDS011;43222;52.912;6.940;2023-06-10T13:35:41;6.43;;;2.75;;
57395;SDS011;43222;52.912;6.940;2023-06-10T13:38:07;8.07;;;2.50;;
57395;SDS011;43222;52.912;6.940;2023-06-10T13:40:33;8.90;;;3.03;;
57395;SDS011;43222;52.912;6.940;2023-06-10T13:42:59;6.53;;;2.80;;
57395;SDS011;43222;52.912;6.940;2023-06-10T13:45:26;6.85;;;2.47;;
57395;SDS011;43222;52.912;6.940;2023-06-10T13:47:53;4.97;;;2.47;;
57395;SDS011;43222;52.912;6.940;2023-06-10T13:50:19;5.07;;;2.58;;
57395;SDS011;43222;52.912;6.940;2023-06-10T13:52:45;7.72;;;2.97;;
57395;SDS011;43222;52.912;6.940;2023-06-10T13:55:11;5.78;;;3.15;;
57395;SDS011;43222;52.912;6.940;2023-06-10T13:57:37;7.22;;;2.72;;
57395;SDS011;43222;52.912;6.940;2023-06-10T14:00:03;7.57;;;3.00;;
57395;SDS011;43222;52.912;6.940;2023-06-10T14:02:30;6.00;;;3.15;;
57395;SDS011;43222;52.912;6.940;2023-06-10T14:04:56;5.53;;;2.58;;
57395;SDS011;43222;52.912;6.940;2023-06-10T14:07:23;6.30;;;2.75;;
57395;SDS011;43222;52.912;6.940;2023-06-10T14:09:51;6.13;;;2.42;;
57395;SDS011;43222;52.912;6.940;2023-06-10T14:12:17;8.40;;;2.80;;
57395;SDS011;43222;52.912;6.940;2023-06-10T14:14:43;5.47;;;2.65;;
57395;SDS011;43222;52.912;6.940;2023-06-10T14:17:09;6.70;;;2.88;;
57395;SDS011;43222;52.912;6.940;2023-06-10T14:19:35;7.60;;;3.20;;
57395;SDS011;43222;52.912;6.940;2023-06-10T14:22:01;8.23;;;3.05;;
57395;SDS011;43222;52.912;6.940;2023-06-10T14:24:27;8.05;;;2.80;;
57395;SDS011;43222;52.912;6.940;2023-06-10T14:26:55;6.20;;;2.88;;
57395;SDS011;43222;52.912;6.940;2023-06-10T14:29:23;7.30;;;3.33;;
57395;SDS011;43222;52.912;6.940;2023-06-10T14:31:49;7.90;;;3.13;;
57395;SDS011;43222;52.912;6.940;2023-06-10T14:34:15;7.43;;;2.88;;
57395;SDS011;43222;52.912;6.940;2023-06-10T14:36:41;7.68;;;2.97;;
57395;SDS011;43222;52.912;6.940;2023-06-10T14:39:07;6.65;;;3.00;;
57395;SDS011;43222;52.912;6.940;2023-06-10T14:41:33;5.80;;;3.00;;
57395;SDS011;43222;52.912;6.940;2023-06-10T14:43:59;6.20;;;2.78;;
57395;SDS011;43222;52.912;6.940;2023-06-10T14:46:25;5.47;;;2.83;;
57395;SDS011;43222;52.912;6.940;2023-06-10T14:48:52;7.05;;;3.13;;
57395;SDS011;43222;52.912;6.940;2023-06-10T14:51:18;6.50;;;2.92;;
57395;SDS011;43222;52.912;6.940;2023-06-10T14:53:45;6.88;;;3.25;;
57395;SDS011;43222;52.912;6.940;2023-06-10T14:56:11;6.90;;;2.63;;
57395;SDS011;43222;52.912;6.940;2023-06-10T14:58:38;6.63;;;2.90;;
57395;SDS011;43222;52.912;6.940;2023-06-10T15:01:04;5.97;;;2.80;;
57395;SDS011;43222;52.912;6.940;2023-06-10T15:03:30;6.57;;;3.00;;
57395;SDS011;43222;52.912;6.940;2023-06-10T15:05:56;8.40;;;2.83;;